Pagina principale
METAR-TAF:

METAR-TAF

Aeroporti :

Trieste / Ronchi dei Legionari, Italia

Aeroporto di Trieste-Ronchi dei Legionari

latitudine: 45-49N, longitudine: 013-29E, altezza: 12 m

Osservazione

Il bollettino è stato emesso 21 minuti fa, alle 07:50 UTC
Vento 1 kt da direzioni variabili
Temperature 23°C
Umidità 53%
Pressione 1020 hPa
Visibilità 10 km o più
nessuna nube inferiore a 1500 m e nessun cumulonembo

METAR: LIPQ 270750Z VRB01KT CAVOK 23/13 Q1020

Ora: 10:11 (08:11 UTC)

Previsione

Il bollettino è stato emesso 3 ore e 11 minuti fa, alle 05:00 UTC
Previsione valida dal 27 alle 06 UTC al 28 alle 06 UTC
Vento 6 kt da direzioni variabili
Visibilità 10 km o più
Poco nuvoloso ad un'altezza di 5000 ft
Evoluzione graduale
dal 27 alle 10 UTC al 27 alle 12 UTC
Vento 10 kt da sud
Evoluzione graduale
dal 27 alle 18 UTC al 27 alle 20 UTC
Vento 5 kt da direzioni variabili

TAF: LIPQ 270500Z 2706/2806 VRB06KT 9999 FEW050 BECMG 2710/2712 19010KT BECMG 2718/2720 VRB05KT

Osservazioni e previsioni meteorologiche di più di 4000 aeroporti (messaggi METAR e TAF).

Le stazioni disponibili sono rappresentate dai dischi gialli e rossi sulla carta.

Puntare il mouse per vedere il nome della stazione.

Clicca sopra per visualizzare le osservazioni e previsioni meteorologiche.

Per cambiare la mappa : fare clic sui pulsanti verdi con una croce nera per ingrandire, il pulsante verde con un trattino per diminuire, o sulla freccia verde per le mappe adiacenti.


METAR-TAF: